sensor_id;sensor_type;location;lat;lon;timestamp;temperature;humidity
57664;DHT22;43493;53.098;6.064;2023-01-25T00:01:53;2.00;99.90
57664;DHT22;43493;53.098;6.064;2023-01-25T00:04:20;2.10;99.90
57664;DHT22;43493;53.098;6.064;2023-01-25T00:06:47;2.10;99.90
57664;DHT22;43493;53.098;6.064;2023-01-25T00:09:13;2.00;99.90
57664;DHT22;43493;53.098;6.064;2023-01-25T00:11:39;2.10;99.90
57664;DHT22;43493;53.098;6.064;2023-01-25T00:14:06;2.00;99.90
57664;DHT22;43493;53.098;6.064;2023-01-25T00:16:32;2.00;99.90
57664;DHT22;43493;53.098;6.064;2023-01-25T00:18:57;2.00;99.90
57664;DHT22;43493;53.098;6.064;2023-01-25T00:21:25;2.00;99.90
57664;DHT22;43493;53.098;6.064;2023-01-25T00:23:51;2.00;99.90
57664;DHT22;43493;53.098;6.064;2023-01-25T00:26:17;2.00;99.90
57664;DHT22;43493;53.098;6.064;2023-01-25T00:28:57;2.10;99.90
57664;DHT22;43493;53.098;6.064;2023-01-25T00:36:33;2.20;99.90
57664;DHT22;43493;53.098;6.064;2023-01-25T00:39:11;2.20;99.90
57664;DHT22;43493;53.098;6.064;2023-01-25T00:41:37;2.20;99.90
57664;DHT22;43493;53.098;6.064;2023-01-25T00:44:02;2.20;99.90
57664;DHT22;43493;53.098;6.064;2023-01-25T00:46:28;2.20;99.90
57664;DHT22;43493;53.098;6.064;2023-01-25T00:48:55;2.20;99.90
57664;DHT22;43493;53.098;6.064;2023-01-25T00:51:21;2.20;99.90
57664;DHT22;43493;53.098;6.064;2023-01-25T00:53:47;2.20;99.90
57664;DHT22;43493;53.098;6.064;2023-01-25T00:56:13;2.20;99.90
57664;DHT22;43493;53.098;6.064;2023-01-25T00:58:42;2.20;99.90
57664;DHT22;43493;53.098;6.064;2023-01-25T01:01:07;2.20;99.90
57664;DHT22;43493;53.098;6.064;2023-01-25T01:03:33;2.20;99.90
57664;DHT22;43493;53.098;6.064;2023-01-25T01:06:05;2.20;99.90
57664;DHT22;43493;53.098;6.064;2023-01-25T01:08:37;2.10;99.90
57664;DHT22;43493;53.098;6.064;2023-01-25T01:11:07;2.10;99.90
57664;DHT22;43493;53.098;6.064;2023-01-25T01:13:33;2.10;99.90
57664;DHT22;43493;53.098;6.064;2023-01-25T01:16:00;2.10;99.90
57664;DHT22;43493;53.098;6.064;2023-01-25T01:18:28;2.10;99.90
57664;DHT22;43493;53.098;6.064;2023-01-25T01:20:54;2.10;99.90
57664;DHT22;43493;53.098;6.064;2023-01-25T01:23:20;2.10;99.90
57664;DHT22;43493;53.098;6.064;2023-01-25T01:25:46;2.20;99.90
57664;DHT22;43493;53.098;6.064;2023-01-25T01:28:12;2.20;99.90
57664;DHT22;43493;53.098;6.064;2023-01-25T01:30:38;2.20;99.90
57664;DHT22;43493;53.098;6.064;2023-01-25T01:33:04;2.20;99.90
57664;DHT22;43493;53.098;6.064;2023-01-25T01:35:31;2.20;99.90
57664;DHT22;43493;53.098;6.064;2023-01-25T01:37:57;2.20;99.90
57664;DHT22;43493;53.098;6.064;2023-01-25T01:40:23;2.20;99.90
57664;DHT22;43493;53.098;6.064;2023-01-25T01:50:41;1.90;99.90
57664;DHT22;43493;53.098;6.064;2023-01-25T01:53:07;1.80;99.90
57664;DHT22;43493;53.098;6.064;2023-01-25T01:55:33;1.70;99.90
57664;DHT22;43493;53.098;6.064;2023-01-25T01:58:00;1.60;99.90
57664;DHT22;43493;53.098;6.064;2023-01-25T02:00:31;1.60;99.90
57664;DHT22;43493;53.098;6.064;2023-01-25T02:02:59;1.60;99.90
57664;DHT22;43493;53.098;6.064;2023-01-25T02:08:07;1.70;99.90
57664;DHT22;43493;53.098;6.064;2023-01-25T02:10:35;1.70;99.90
57664;DHT22;43493;53.098;6.064;2023-01-25T02:13:01;1.70;99.90
57664;DHT22;43493;53.098;6.064;2023-01-25T02:15:28;1.70;99.90
57664;DHT22;43493;53.098;6.064;2023-01-25T02:17:56;1.70;99.90
57664;DHT22;43493;53.098;6.064;2023-01-25T02:20:36;1.80;99.90
57664;DHT22;43493;53.098;6.064;2023-01-25T02:26:03;1.80;99.90
57664;DHT22;43493;53.098;6.064;2023-01-25T02:28:45;1.90;99.90
57664;DHT22;43493;53.098;6.064;2023-01-25T02:31:11;1.80;99.90
57664;DHT22;43493;53.098;6.064;2023-01-25T02:33:37;1.80;99.90
57664;DHT22;43493;53.098;6.064;2023-01-25T02:38:44;1.80;99.90
57664;DHT22;43493;53.098;6.064;2023-01-25T02:43:46;1.80;99.90
57664;DHT22;43493;53.098;6.064;2023-01-25T02:46:23;1.80;99.90
57664;DHT22;43493;53.098;6.064;2023-01-25T02:48:52;1.90;99.90
57664;DHT22;43493;53.098;6.064;2023-01-25T02:51:19;1.90;99.90
57664;DHT22;43493;53.098;6.064;2023-01-25T02:53:44;1.80;99.90
57664;DHT22;43493;53.098;6.064;2023-01-25T02:56:10;1.90;99.90
57664;DHT22;43493;53.098;6.064;2023-01-25T02:58:36;1.80;99.90
57664;DHT22;43493;53.098;6.064;2023-01-25T03:01:02;1.90;99.90
57664;DHT22;43493;53.098;6.064;2023-01-25T03:03:27;1.80;99.90
57664;DHT22;43493;53.098;6.064;2023-01-25T03:05:53;1.80;99.90
57664;DHT22;43493;53.098;6.064;2023-01-25T03:08:18;1.80;99.90
57664;DHT22;43493;53.098;6.064;2023-01-25T03:10:44;1.90;99.90
57664;DHT22;43493;53.098;6.064;2023-01-25T03:13:10;1.80;99.90
57664;DHT22;43493;53.098;6.064;2023-01-25T03:15:35;1.90;99.90
57664;DHT22;43493;53.098;6.064;2023-01-25T03:18:01;1.90;99.90
57664;DHT22;43493;53.098;6.064;2023-01-25T03:20:27;1.90;99.90
57664;DHT22;43493;53.098;6.064;2023-01-25T03:22:54;1.90;99.90
57664;DHT22;43493;53.098;6.064;2023-01-25T03:25:19;1.90;99.90
57664;DHT22;43493;53.098;6.064;2023-01-25T03:27:45;1.90;99.90
57664;DHT22;43493;53.098;6.064;2023-01-25T03:30:11;1.80;99.90
57664;DHT22;43493;53.098;6.064;2023-01-25T03:32:37;1.80;99.90
57664;DHT22;43493;53.098;6.064;2023-01-25T03:35:03;1.80;99.90
57664;DHT22;43493;53.098;6.064;2023-01-25T03:37:29;1.80;99.90
57664;DHT22;43493;53.098;6.064;2023-01-25T03:39:56;1.80;99.90
57664;DHT22;43493;53.098;6.064;2023-01-25T03:42:23;1.80;99.90
57664;DHT22;43493;53.098;6.064;2023-01-25T03:44:48;1.80;99.90
57664;DHT22;43493;53.098;6.064;2023-01-25T03:47:14;1.80;99.90
57664;DHT22;43493;53.098;6.064;2023-01-25T03:49:40;1.80;99.90
57664;DHT22;43493;53.098;6.064;2023-01-25T03:52:07;1.80;99.90
57664;DHT22;43493;53.098;6.064;2023-01-25T03:54:33;1.80;99.90
57664;DHT22;43493;53.098;6.064;2023-01-25T03:56:59;1.80;99.90
57664;DHT22;43493;53.098;6.064;2023-01-25T03:59:24;1.80;99.90
57664;DHT22;43493;53.098;6.064;2023-01-25T04:01:50;1.80;99.90
57664;DHT22;43493;53.098;6.064;2023-01-25T04:04:16;1.90;99.90
57664;DHT22;43493;53.098;6.064;2023-01-25T04:06:42;1.90;99.90
57664;DHT22;43493;53.098;6.064;2023-01-25T04:09:08;1.90;99.90
57664;DHT22;43493;53.098;6.064;2023-01-25T04:11:33;1.90;99.90
57664;DHT22;43493;53.098;6.064;2023-01-25T04:13:59;1.90;99.90
57664;DHT22;43493;53.098;6.064;2023-01-25T04:16:25;1.90;99.90
57664;DHT22;43493;53.098;6.064;2023-01-25T04:18:52;1.80;99.90
57664;DHT22;43493;53.098;6.064;2023-01-25T04:21:18;1.80;99.90
57664;DHT22;43493;53.098;6.064;2023-01-25T04:23:43;1.80;99.90
57664;DHT22;43493;53.098;6.064;2023-01-25T04:26:10;1.80;99.90
57664;DHT22;43493;53.098;6.064;2023-01-25T04:28:37;1.80;99.90
57664;DHT22;43493;53.098;6.064;2023-01-25T04:31:03;1.80;99.90
57664;DHT22;43493;53.098;6.064;2023-01-25T04:33:31;1.70;99.90
57664;DHT22;43493;53.098;6.064;2023-01-25T04:35:57;1.70;99.90
57664;DHT22;43493;53.098;6.064;2023-01-25T04:38:23;1.70;99.90
57664;DHT22;43493;53.098;6.064;2023-01-25T04:40:50;1.70;99.90
57664;DHT22;43493;53.098;6.064;2023-01-25T04:43:17;1.70;99.90
57664;DHT22;43493;53.098;6.064;2023-01-25T04:45:43;1.70;99.90
57664;DHT22;43493;53.098;6.064;2023-01-25T04:48:10;1.70;99.90
57664;DHT22;43493;53.098;6.064;2023-01-25T04:50:37;1.60;99.90
57664;DHT22;43493;53.098;6.064;2023-01-25T04:53:04;1.60;99.90
57664;DHT22;43493;53.098;6.064;2023-01-25T04:55:29;1.60;99.90
57664;DHT22;43493;53.098;6.064;2023-01-25T04:57:55;1.60;99.90
57664;DHT22;43493;53.098;6.064;2023-01-25T05:00:21;1.60;99.90
57664;DHT22;43493;53.098;6.064;2023-01-25T05:02:47;1.60;99.90
57664;DHT22;43493;53.098;6.064;2023-01-25T05:05:13;1.70;99.90
57664;DHT22;43493;53.098;6.064;2023-01-25T05:07:38;1.60;99.90
57664;DHT22;43493;53.098;6.064;2023-01-25T05:10:05;1.60;99.90
57664;DHT22;43493;53.098;6.064;2023-01-25T05:12:31;1.60;99.90
57664;DHT22;43493;53.098;6.064;2023-01-25T05:14:57;1.60;99.90
57664;DHT22;43493;53.098;6.064;2023-01-25T05:17:23;1.50;99.90
57664;DHT22;43493;53.098;6.064;2023-01-25T05:19:48;1.50;99.90
57664;DHT22;43493;53.098;6.064;2023-01-25T05:22:15;1.50;99.90
57664;DHT22;43493;53.098;6.064;2023-01-25T05:24:41;1.40;99.90
57664;DHT22;43493;53.098;6.064;2023-01-25T05:27:08;1.50;99.90
57664;DHT22;43493;53.098;6.064;2023-01-25T05:29:39;1.40;99.90
57664;DHT22;43493;53.098;6.064;2023-01-25T05:34:35;1.50;99.90
57664;DHT22;43493;53.098;6.064;2023-01-25T05:37:02;1.60;99.90
57664;DHT22;43493;53.098;6.064;2023-01-25T05:39:27;1.50;99.90
57664;DHT22;43493;53.098;6.064;2023-01-25T05:41:53;1.50;99.90
57664;DHT22;43493;53.098;6.064;2023-01-25T05:44:19;1.50;99.90
57664;DHT22;43493;53.098;6.064;2023-01-25T05:46:45;1.50;99.90
57664;DHT22;43493;53.098;6.064;2023-01-25T05:49:11;1.50;99.90
57664;DHT22;43493;53.098;6.064;2023-01-25T05:51:37;1.50;99.90
57664;DHT22;43493;53.098;6.064;2023-01-25T05:54:04;1.50;99.90
57664;DHT22;43493;53.098;6.064;2023-01-25T05:56:31;1.50;99.90
57664;DHT22;43493;53.098;6.064;2023-01-25T05:58:59;1.50;99.90
57664;DHT22;43493;53.098;6.064;2023-01-25T06:01:25;1.50;99.90
57664;DHT22;43493;53.098;6.064;2023-01-25T06:03:52;1.50;99.90
57664;DHT22;43493;53.098;6.064;2023-01-25T06:06:18;1.50;99.90
57664;DHT22;43493;53.098;6.064;2023-01-25T06:08:44;1.50;99.90
57664;DHT22;43493;53.098;6.064;2023-01-25T06:11:12;1.50;99.90
57664;DHT22;43493;53.098;6.064;2023-01-25T06:13:37;1.50;99.90
57664;DHT22;43493;53.098;6.064;2023-01-25T06:16:03;1.50;99.90
57664;DHT22;43493;53.098;6.064;2023-01-25T06:18:31;1.50;99.90
57664;DHT22;43493;53.098;6.064;2023-01-25T06:20:57;1.50;99.90
57664;DHT22;43493;53.098;6.064;2023-01-25T06:23:23;1.50;99.90
57664;DHT22;43493;53.098;6.064;2023-01-25T06:25:49;1.50;99.90
57664;DHT22;43493;53.098;6.064;2023-01-25T06:28:15;1.50;99.90
57664;DHT22;43493;53.098;6.064;2023-01-25T06:30:41;1.50;99.90
57664;DHT22;43493;53.098;6.064;2023-01-25T06:33:07;1.50;99.90
57664;DHT22;43493;53.098;6.064;2023-01-25T06:35:33;1.50;99.90
57664;DHT22;43493;53.098;6.064;2023-01-25T06:37:59;1.40;99.90
57664;DHT22;43493;53.098;6.064;2023-01-25T06:40:26;1.50;99.90
57664;DHT22;43493;53.098;6.064;2023-01-25T06:42:53;1.50;99.90
57664;DHT22;43493;53.098;6.064;2023-01-25T06:45:19;1.50;99.90
57664;DHT22;43493;53.098;6.064;2023-01-25T06:47:44;1.50;99.90
57664;DHT22;43493;53.098;6.064;2023-01-25T06:50:12;1.40;99.90
57664;DHT22;43493;53.098;6.064;2023-01-25T06:52:38;1.40;99.90
57664;DHT22;43493;53.098;6.064;2023-01-25T06:55:05;1.40;99.90
57664;DHT22;43493;53.098;6.064;2023-01-25T06:57:33;1.40;99.90
57664;DHT22;43493;53.098;6.064;2023-01-25T06:59:59;1.40;99.90
57664;DHT22;43493;53.098;6.064;2023-01-25T07:02:25;1.30;99.90
57664;DHT22;43493;53.098;6.064;2023-01-25T07:04:50;1.30;99.90
57664;DHT22;43493;53.098;6.064;2023-01-25T07:07:16;1.50;99.90
57664;DHT22;43493;53.098;6.064;2023-01-25T07:09:42;1.40;99.90
57664;DHT22;43493;53.098;6.064;2023-01-25T07:12:08;1.40;99.90
57664;DHT22;43493;53.098;6.064;2023-01-25T07:14:33;1.40;99.90
57664;DHT22;43493;53.098;6.064;2023-01-25T07:16:59;1.40;99.90
57664;DHT22;43493;53.098;6.064;2023-01-25T07:19:25;1.40;99.90
57664;DHT22;43493;53.098;6.064;2023-01-25T07:21:51;1.40;99.90
57664;DHT22;43493;53.098;6.064;2023-01-25T07:24:18;1.50;99.90
57664;DHT22;43493;53.098;6.064;2023-01-25T07:26:45;1.50;99.90
57664;DHT22;43493;53.098;6.064;2023-01-25T07:29:13;1.50;99.90
57664;DHT22;43493;53.098;6.064;2023-01-25T07:31:39;1.50;99.90
57664;DHT22;43493;53.098;6.064;2023-01-25T07:34:07;1.60;99.90
57664;DHT22;43493;53.098;6.064;2023-01-25T07:36:34;1.60;99.90
57664;DHT22;43493;53.098;6.064;2023-01-25T07:39:00;1.60;99.90
57664;DHT22;43493;53.098;6.064;2023-01-25T07:41:26;1.60;99.90
57664;DHT22;43493;53.098;6.064;2023-01-25T07:43:52;1.50;99.90
57664;DHT22;43493;53.098;6.064;2023-01-25T07:46:18;1.50;99.90
57664;DHT22;43493;53.098;6.064;2023-01-25T07:48:46;1.50;99.90
57664;DHT22;43493;53.098;6.064;2023-01-25T07:51:12;1.50;99.90
57664;DHT22;43493;53.098;6.064;2023-01-25T07:53:55;1.50;99.90
57664;DHT22;43493;53.098;6.064;2023-01-25T07:56:23;1.50;99.90
57664;DHT22;43493;53.098;6.064;2023-01-25T07:58:51;1.50;99.90
57664;DHT22;43493;53.098;6.064;2023-01-25T08:01:20;1.50;99.90
57664;DHT22;43493;53.098;6.064;2023-01-25T08:03:48;1.50;99.90
57664;DHT22;43493;53.098;6.064;2023-01-25T08:06:14;1.60;99.90
57664;DHT22;43493;53.098;6.064;2023-01-25T08:08:46;1.60;99.90
57664;DHT22;43493;53.098;6.064;2023-01-25T08:11:23;1.60;99.90
57664;DHT22;43493;53.098;6.064;2023-01-25T08:13:50;1.60;99.90
57664;DHT22;43493;53.098;6.064;2023-01-25T08:16:21;1.60;99.90
57664;DHT22;43493;53.098;6.064;2023-01-25T08:18:49;1.60;99.90
57664;DHT22;43493;53.098;6.064;2023-01-25T08:21:15;1.60;99.90
57664;DHT22;43493;53.098;6.064;2023-01-25T08:23:41;1.60;99.90
57664;DHT22;43493;53.098;6.064;2023-01-25T08:26:09;1.60;99.90
57664;DHT22;43493;53.098;6.064;2023-01-25T08:28:35;1.50;99.90
57664;DHT22;43493;53.098;6.064;2023-01-25T08:31:09;1.60;99.90
57664;DHT22;43493;53.098;6.064;2023-01-25T08:33:36;1.60;99.90
57664;DHT22;43493;53.098;6.064;2023-01-25T08:36:02;1.60;99.90
57664;DHT22;43493;53.098;6.064;2023-01-25T08:38:28;1.60;99.90
57664;DHT22;43493;53.098;6.064;2023-01-25T08:40:54;1.60;99.90
57664;DHT22;43493;53.098;6.064;2023-01-25T08:43:20;1.60;99.90
57664;DHT22;43493;53.098;6.064;2023-01-25T08:45:47;1.60;99.90
57664;DHT22;43493;53.098;6.064;2023-01-25T08:48:20;1.60;99.90
57664;DHT22;43493;53.098;6.064;2023-01-25T08:50:46;1.60;99.90
57664;DHT22;43493;53.098;6.064;2023-01-25T08:53:12;1.60;99.90
57664;DHT22;43493;53.098;6.064;2023-01-25T08:55:38;1.50;99.90
57664;DHT22;43493;53.098;6.064;2023-01-25T08:58:06;1.60;99.90
57664;DHT22;43493;53.098;6.064;2023-01-25T09:00:37;1.60;99.90
57664;DHT22;43493;53.098;6.064;2023-01-25T09:03:03;1.60;99.90
57664;DHT22;43493;53.098;6.064;2023-01-25T09:05:29;1.60;99.90
57664;DHT22;43493;53.098;6.064;2023-01-25T09:07:54;1.60;99.90
57664;DHT22;43493;53.098;6.064;2023-01-25T09:10:20;1.60;99.90
57664;DHT22;43493;53.098;6.064;2023-01-25T09:12:46;1.60;99.90
57664;DHT22;43493;53.098;6.064;2023-01-25T09:15:11;1.60;99.90
57664;DHT22;43493;53.098;6.064;2023-01-25T09:17:37;1.60;99.90
57664;DHT22;43493;53.098;6.064;2023-01-25T09:20:05;1.60;99.90
57664;DHT22;43493;53.098;6.064;2023-01-25T09:22:31;1.60;99.90
57664;DHT22;43493;53.098;6.064;2023-01-25T09:24:57;1.60;99.90
57664;DHT22;43493;53.098;6.064;2023-01-25T09:27:22;1.60;99.90
57664;DHT22;43493;53.098;6.064;2023-01-25T09:29:48;1.60;99.90
57664;DHT22;43493;53.098;6.064;2023-01-25T09:32:14;1.60;99.90
57664;DHT22;43493;53.098;6.064;2023-01-25T09:34:40;1.60;99.90
57664;DHT22;43493;53.098;6.064;2023-01-25T09:37:06;1.70;99.90
57664;DHT22;43493;53.098;6.064;2023-01-25T09:39:31;1.70;99.90
57664;DHT22;43493;53.098;6.064;2023-01-25T09:47:40;1.70;99.90
57664;DHT22;43493;53.098;6.064;2023-01-25T09:53:31;1.80;99.90
57664;DHT22;43493;53.098;6.064;2023-01-25T09:56:21;1.80;99.90
57664;DHT22;43493;53.098;6.064;2023-01-25T09:58:54;1.80;99.90
57664;DHT22;43493;53.098;6.064;2023-01-25T10:04:03;1.80;99.90
57664;DHT22;43493;53.098;6.064;2023-01-25T10:06:39;1.80;99.90
57664;DHT22;43493;53.098;6.064;2023-01-25T10:09:25;1.80;99.90
57664;DHT22;43493;53.098;6.064;2023-01-25T10:11:52;1.80;99.90
57664;DHT22;43493;53.098;6.064;2023-01-25T10:14:19;1.80;99.90
57664;DHT22;43493;53.098;6.064;2023-01-25T10:22:20;1.90;99.90
57664;DHT22;43493;53.098;6.064;2023-01-25T10:30:42;1.90;99.90
57664;DHT22;43493;53.098;6.064;2023-01-25T10:33:14;1.90;99.90
57664;DHT22;43493;53.098;6.064;2023-01-25T10:35:43;1.90;99.90
57664;DHT22;43493;53.098;6.064;2023-01-25T10:38:24;1.90;99.90
57664;DHT22;43493;53.098;6.064;2023-01-25T10:41:03;1.90;99.90
57664;DHT22;43493;53.098;6.064;2023-01-25T10:43:30;2.00;99.90
57664;DHT22;43493;53.098;6.064;2023-01-25T10:45:56;2.00;99.90
57664;DHT22;43493;53.098;6.064;2023-01-25T10:48:35;2.10;99.90
57664;DHT22;43493;53.098;6.064;2023-01-25T10:51:01;2.00;99.90
57664;DHT22;43493;53.098;6.064;2023-01-25T10:53:33;2.00;99.90
57664;DHT22;43493;53.098;6.064;2023-01-25T10:58:48;2.10;99.90
57664;DHT22;43493;53.098;6.064;2023-01-25T11:03:52;2.10;99.90
57664;DHT22;43493;53.098;6.064;2023-01-25T11:06:51;2.10;99.90
57664;DHT22;43493;53.098;6.064;2023-01-25T11:14:24;2.10;99.90
57664;DHT22;43493;53.098;6.064;2023-01-25T11:16:54;2.10;99.90
57664;DHT22;43493;53.098;6.064;2023-01-25T11:21:51;2.10;99.90
57664;DHT22;43493;53.098;6.064;2023-01-25T11:24:17;2.10;99.90
57664;DHT22;43493;53.098;6.064;2023-01-25T11:26:44;2.10;99.90
57664;DHT22;43493;53.098;6.064;2023-01-25T11:29:21;2.10;99.90
57664;DHT22;43493;53.098;6.064;2023-01-25T11:31:54;2.10;99.90
57664;DHT22;43493;53.098;6.064;2023-01-25T11:34:26;2.10;99.90
57664;DHT22;43493;53.098;6.064;2023-01-25T11:42:44;2.10;99.90
57664;DHT22;43493;53.098;6.064;2023-01-25T11:50:35;2.10;99.90
57664;DHT22;43493;53.098;6.064;2023-01-25T11:59:43;2.20;99.90
57664;DHT22;43493;53.098;6.064;2023-01-25T12:02:36;2.20;99.90
57664;DHT22;43493;53.098;6.064;2023-01-25T12:07:55;2.20;99.90
57664;DHT22;43493;53.098;6.064;2023-01-25T12:10:47;2.30;99.90
57664;DHT22;43493;53.098;6.064;2023-01-25T12:16:43;2.30;99.90
57664;DHT22;43493;53.098;6.064;2023-01-25T12:28:05;2.40;99.90
57664;DHT22;43493;53.098;6.064;2023-01-25T12:30:42;2.40;99.90
57664;DHT22;43493;53.098;6.064;2023-01-25T12:33:20;2.40;99.90
57664;DHT22;43493;53.098;6.064;2023-01-25T12:38:41;2.40;99.90
57664;DHT22;43493;53.098;6.064;2023-01-25T12:44:39;2.40;99.90
57664;DHT22;43493;53.098;6.064;2023-01-25T12:50:51;2.40;99.90
57664;DHT22;43493;53.098;6.064;2023-01-25T12:53:24;2.40;99.90
57664;DHT22;43493;53.098;6.064;2023-01-25T12:55:51;2.40;99.90
57664;DHT22;43493;53.098;6.064;2023-01-25T12:58:41;2.50;99.90
57664;DHT22;43493;53.098;6.064;2023-01-25T13:01:32;2.50;99.90
57664;DHT22;43493;53.098;6.064;2023-01-25T13:06:45;2.50;99.90
57664;DHT22;43493;53.098;6.064;2023-01-25T13:12:10;2.50;99.90
57664;DHT22;43493;53.098;6.064;2023-01-25T13:14:40;2.50;99.90
57664;DHT22;43493;53.098;6.064;2023-01-25T13:17:29;2.50;99.90
57664;DHT22;43493;53.098;6.064;2023-01-25T13:23:03;2.50;99.90
57664;DHT22;43493;53.098;6.064;2023-01-25T13:25:29;2.50;99.90
57664;DHT22;43493;53.098;6.064;2023-01-25T13:28:39;2.50;99.90
57664;DHT22;43493;53.098;6.064;2023-01-25T13:31:06;2.50;99.90
57664;DHT22;43493;53.098;6.064;2023-01-25T13:33:35;2.50;99.90
57664;DHT22;43493;53.098;6.064;2023-01-25T13:36:36;2.50;99.90
57664;DHT22;43493;53.098;6.064;2023-01-25T13:42:16;2.50;99.90
57664;DHT22;43493;53.098;6.064;2023-01-25T13:44:44;2.50;99.90
57664;DHT22;43493;53.098;6.064;2023-01-25T13:47:13;2.50;99.90
57664;DHT22;43493;53.098;6.064;2023-01-25T13:52:18;2.50;99.90
57664;DHT22;43493;53.098;6.064;2023-01-25T13:54:46;2.50;99.90
57664;DHT22;43493;53.098;6.064;2023-01-25T13:57:14;2.50;99.90
57664;DHT22;43493;53.098;6.064;2023-01-25T13:59:40;2.50;99.90
57664;DHT22;43493;53.098;6.064;2023-01-25T14:02:17;2.50;99.90
57664;DHT22;43493;53.098;6.064;2023-01-25T14:04:46;2.50;99.90
57664;DHT22;43493;53.098;6.064;2023-01-25T14:07:17;2.50;99.90
57664;DHT22;43493;53.098;6.064;2023-01-25T14:09:49;2.50;99.90
57664;DHT22;43493;53.098;6.064;2023-01-25T14:12:30;2.50;99.90
57664;DHT22;43493;53.098;6.064;2023-01-25T14:15:25;2.50;99.90
57664;DHT22;43493;53.098;6.064;2023-01-25T14:18:11;2.50;99.90
57664;DHT22;43493;53.098;6.064;2023-01-25T14:20:41;2.50;99.90
57664;DHT22;43493;53.098;6.064;2023-01-25T14:23:26;2.60;99.90
57664;DHT22;43493;53.098;6.064;2023-01-25T14:25:54;2.60;99.90
57664;DHT22;43493;53.098;6.064;2023-01-25T14:28:20;2.60;99.90
57664;DHT22;43493;53.098;6.064;2023-01-25T14:30:51;2.60;99.90
57664;DHT22;43493;53.098;6.064;2023-01-25T14:33:24;2.60;99.90
57664;DHT22;43493;53.098;6.064;2023-01-25T14:35:51;2.60;99.90
57664;DHT22;43493;53.098;6.064;2023-01-25T14:38:20;2.60;99.90
57664;DHT22;43493;53.098;6.064;2023-01-25T14:40:46;2.60;99.90
57664;DHT22;43493;53.098;6.064;2023-01-25T14:43:13;2.60;99.90
57664;DHT22;43493;53.098;6.064;2023-01-25T14:45:39;2.70;99.90
57664;DHT22;43493;53.098;6.064;2023-01-25T14:51:12;2.60;99.90
57664;DHT22;43493;53.098;6.064;2023-01-25T14:53:42;2.60;99.90
57664;DHT22;43493;53.098;6.064;2023-01-25T14:58:48;2.60;99.90
57664;DHT22;43493;53.098;6.064;2023-01-25T15:01:25;2.50;99.90
57664;DHT22;43493;53.098;6.064;2023-01-25T15:03:52;2.50;99.90
57664;DHT22;43493;53.098;6.064;2023-01-25T15:06:18;2.50;99.90
57664;DHT22;43493;53.098;6.064;2023-01-25T15:08:43;2.50;99.90
57664;DHT22;43493;53.098;6.064;2023-01-25T15:11:32;2.30;99.90
57664;DHT22;43493;53.098;6.064;2023-01-25T15:14:19;2.40;99.90
57664;DHT22;43493;53.098;6.064;2023-01-25T15:16:45;2.40;99.90
57664;DHT22;43493;53.098;6.064;2023-01-25T15:19:25;2.40;99.90
57664;DHT22;43493;53.098;6.064;2023-01-25T15:21:53;2.30;99.90
57664;DHT22;43493;53.098;6.064;2023-01-25T15:24:20;2.30;99.90
57664;DHT22;43493;53.098;6.064;2023-01-25T15:26:51;2.30;99.90
57664;DHT22;43493;53.098;6.064;2023-01-25T15:29:23;2.30;99.90
57664;DHT22;43493;53.098;6.064;2023-01-25T15:31:52;2.30;99.90
57664;DHT22;43493;53.098;6.064;2023-01-25T15:34:26;2.30;99.90
57664;DHT22;43493;53.098;6.064;2023-01-25T15:36:56;2.30;99.90
57664;DHT22;43493;53.098;6.064;2023-01-25T15:39:22;2.30;99.90
57664;DHT22;43493;53.098;6.064;2023-01-25T15:41:48;2.30;99.90
57664;DHT22;43493;53.098;6.064;2023-01-25T15:44:14;2.30;99.90
57664;DHT22;43493;53.098;6.064;2023-01-25T15:46:44;2.30;99.90
57664;DHT22;43493;53.098;6.064;2023-01-25T15:49:17;2.30;99.90
57664;DHT22;43493;53.098;6.064;2023-01-25T15:51:43;2.20;99.90
57664;DHT22;43493;53.098;6.064;2023-01-25T15:54:09;2.20;99.90
57664;DHT22;43493;53.098;6.064;2023-01-25T15:56:35;2.20;99.90
57664;DHT22;43493;53.098;6.064;2023-01-25T15:59:06;2.20;99.90
57664;DHT22;43493;53.098;6.064;2023-01-25T16:01:32;2.20;99.90
57664;DHT22;43493;53.098;6.064;2023-01-25T16:03:59;2.10;99.90
57664;DHT22;43493;53.098;6.064;2023-01-25T16:06:58;2.10;99.90
57664;DHT22;43493;53.098;6.064;2023-01-25T16:09:24;2.10;99.90
57664;DHT22;43493;53.098;6.064;2023-01-25T16:11:57;2.10;99.90
57664;DHT22;43493;53.098;6.064;2023-01-25T16:14:25;2.10;99.90
57664;DHT22;43493;53.098;6.064;2023-01-25T16:17:00;2.00;99.90
57664;DHT22;43493;53.098;6.064;2023-01-25T16:19:27;1.90;99.90
57664;DHT22;43493;53.098;6.064;2023-01-25T16:21:54;2.00;99.90
57664;DHT22;43493;53.098;6.064;2023-01-25T16:24:20;2.00;99.90
57664;DHT22;43493;53.098;6.064;2023-01-25T16:26:59;2.00;99.90
57664;DHT22;43493;53.098;6.064;2023-01-25T16:29:26;2.00;99.90
57664;DHT22;43493;53.098;6.064;2023-01-25T16:31:53;2.00;99.90
57664;DHT22;43493;53.098;6.064;2023-01-25T16:34:20;2.00;99.90
57664;DHT22;43493;53.098;6.064;2023-01-25T16:36:46;2.00;99.90
57664;DHT22;43493;53.098;6.064;2023-01-25T16:39:22;2.00;99.90
57664;DHT22;43493;53.098;6.064;2023-01-25T16:41:49;1.90;99.90
57664;DHT22;43493;53.098;6.064;2023-01-25T16:44:15;1.90;99.90
57664;DHT22;43493;53.098;6.064;2023-01-25T16:46:41;1.90;99.90
57664;DHT22;43493;53.098;6.064;2023-01-25T16:49:13;1.90;99.90
57664;DHT22;43493;53.098;6.064;2023-01-25T16:51:39;1.90;99.90
57664;DHT22;43493;53.098;6.064;2023-01-25T16:54:05;1.80;99.90
57664;DHT22;43493;53.098;6.064;2023-01-25T16:56:32;1.80;99.90
57664;DHT22;43493;53.098;6.064;2023-01-25T16:59:04;1.80;99.90
57664;DHT22;43493;53.098;6.064;2023-01-25T17:01:30;1.70;99.90
57664;DHT22;43493;53.098;6.064;2023-01-25T17:03:56;1.70;99.90
57664;DHT22;43493;53.098;6.064;2023-01-25T17:06:28;1.70;99.90
57664;DHT22;43493;53.098;6.064;2023-01-25T17:08:55;1.60;99.90
57664;DHT22;43493;53.098;6.064;2023-01-25T17:11:21;1.70;99.90
57664;DHT22;43493;53.098;6.064;2023-01-25T17:13:53;1.70;99.90
57664;DHT22;43493;53.098;6.064;2023-01-25T17:16:20;1.70;99.90
57664;DHT22;43493;53.098;6.064;2023-01-25T17:18:46;1.60;99.90
57664;DHT22;43493;53.098;6.064;2023-01-25T17:21:13;1.60;99.90
57664;DHT22;43493;53.098;6.064;2023-01-25T17:23:39;1.60;99.90
57664;DHT22;43493;53.098;6.064;2023-01-25T17:26:07;1.60;99.90
57664;DHT22;43493;53.098;6.064;2023-01-25T17:28:34;1.70;99.90
57664;DHT22;43493;53.098;6.064;2023-01-25T17:31:00;1.60;99.90
57664;DHT22;43493;53.098;6.064;2023-01-25T17:33:26;1.70;99.90
57664;DHT22;43493;53.098;6.064;2023-01-25T17:35:52;1.60;99.90
57664;DHT22;43493;53.098;6.064;2023-01-25T17:38:25;1.50;99.90
57664;DHT22;43493;53.098;6.064;2023-01-25T17:40:51;1.60;99.90
57664;DHT22;43493;53.098;6.064;2023-01-25T17:43:17;1.60;99.90
57664;DHT22;43493;53.098;6.064;2023-01-25T17:45:43;1.70;99.90
57664;DHT22;43493;53.098;6.064;2023-01-25T17:48:09;1.70;99.90
57664;DHT22;43493;53.098;6.064;2023-01-25T17:50:35;1.60;99.90
57664;DHT22;43493;53.098;6.064;2023-01-25T17:53:02;1.60;99.90
57664;DHT22;43493;53.098;6.064;2023-01-25T17:55:28;1.60;99.90
57664;DHT22;43493;53.098;6.064;2023-01-25T17:57:55;1.60;99.90
57664;DHT22;43493;53.098;6.064;2023-01-25T18:00:21;1.60;99.90